Time;durP1;ratioP1;P1;durP2;ratioP2;P2;SDS_P1;SDS_P2;PMS_P1;PMS_P2;Temp;Humidity;BMP_temperature;BMP_pressure;BME280_temperature;BME280_humidity;BME280_pressure;Samples;Min_cycle;Max_cycle;Signal;HPM_P1;HPM_P2
2021/03/22 00:02:06;;;;;;;;;;;;;;;2.35;41.70;95680.20;1729834;81;20227;-53
2021/03/22 00:04:33;;;;;;;;;;;;;;;2.36;41.72;95681.41;1726181;81;20235;-53
2021/03/22 00:07:01;;;;;;;;;;;;;;;2.39;41.74;95678.69;1727412;81;20234;-53
2021/03/22 00:09:30;;;;;;;;;;;;;;;2.36;41.50;95676.28;1732720;81;20334;-53
2021/03/22 00:11:57;;;;;;;;;;;;;;;2.30;41.53;95674.50;1739569;81;20226;-54
2021/03/22 00:14:26;;;;;;;;;;;;;;;2.30;41.82;95677.06;1729476;81;20259;-52
2021/03/22 00:16:54;;;;;;;;;;;;;;;2.33;41.58;95673.06;1737828;81;20246;-53
2021/03/22 00:19:23;;;;;;;;;;;;;;;2.38;41.61;95671.09;1735712;81;20219;-53
2021/03/22 00:21:50;;;;;;;;;;;;;;;2.43;41.51;95667.83;1729100;81;21210;-52
2021/03/22 00:24:19;;;;;;;;;;;;;;;2.50;41.78;95664.48;1728340;81;20230;-54
2021/03/22 00:26:47;;;;;;;;;;;;;;;2.56;41.50;95668.00;1728555;81;20225;-52
2021/03/22 00:29:15;;;;;;;;;;;;;;;2.55;41.71;95668.47;1732958;81;20222;-52
2021/03/22 00:31:42;;;;;;;;;;;;;;;2.55;42.07;95668.47;1731094;81;20620;-52
2021/03/22 00:34:10;;;;;;;;;;;;;;;2.54;41.72;95660.87;1729509;81;21404;-53
2021/03/22 00:36:37;;;;;;;;;;;;;;;2.56;41.66;95661.14;1734230;81;20223;-54
2021/03/22 00:39:05;;;;;;;;;;;;;;;2.56;41.78;95656.02;1737966;81;20393;-52
2021/03/22 00:41:33;;;;;;;;;;;;;;;2.59;41.86;95655.04;1736799;81;20273;-52
2021/03/22 00:44:00;;;;;;;;;;;;;;;2.64;41.88;95658.17;1744582;81;20226;-52
2021/03/22 00:46:29;;;;;;;;;;;;;;;2.73;41.27;95654.28;1737806;81;21165;-53
2021/03/22 00:48:57;;;;;;;;;;;;;;;2.69;41.07;95657.94;1740353;81;20300;-53
2021/03/22 00:51:25;;;;;;;;;;;;;;;2.69;41.20;95655.38;1729839;81;20222;-52
2021/03/22 00:53:54;;;;;;;;;;;;;;;2.70;41.10;95653.19;1737267;81;20250;-53
2021/03/22 00:56:23;;;;;;;;;;;;;;;2.65;41.21;95656.43;1738127;81;20249;-51
2021/03/22 00:58:50;;;;;;;;;;;;;;;2.63;40.60;95652.70;1736299;81;22369;-51
2021/03/22 01:01:17;;;;;;;;;;;;;;;2.53;40.76;95649.80;1739091;81;20226;-53
2021/03/22 01:03:45;;;;;;;;;;;;;;;2.47;41.11;95655.25;1739572;81;20227;-53
2021/03/22 01:06:13;;;;;;;;;;;;;;;2.49;41.15;95652.14;1734307;81;20249;-53
2021/03/22 01:08:41;;;;;;;;;;;;;;;2.47;41.17;95646.75;1734852;81;20499;-53
2021/03/22 01:11:15;;;;;;;;;;;;;;;2.42;41.40;95641.02;1734872;81;22381;-53
2021/03/22 01:13:44;;;;;;;;;;;;;;;2.36;41.44;95643.47;1736570;81;20242;-52
2021/03/22 01:16:13;;;;;;;;;;;;;;;2.28;41.49;95643.05;1737690;81;20226;-52
2021/03/22 01:18:44;;;;;;;;;;;;;;;2.21;41.84;95640.80;1739412;81;20534;-52
2021/03/22 01:21:21;;;;;;;;;;;;;;;2.18;42.05;95637.58;1736229;81;20214;-52
2021/03/22 01:23:48;;;;;;;;;;;;;;;2.09;42.05;95629.95;1741937;81;21364;-53
2021/03/22 01:26:18;;;;;;;;;;;;;;;2.05;42.18;95627.63;1742531;81;20770;-53
2021/03/22 01:28:45;;;;;;;;;;;;;;;2.02;42.48;95631.16;1736223;81;20229;-52
2021/03/22 01:31:13;;;;;;;;;;;;;;;1.99;42.49;95624.48;1739689;81;20215;-53
2021/03/22 01:33:43;;;;;;;;;;;;;;;1.97;42.78;95625.45;1734889;81;20505;-52
2021/03/22 01:36:14;;;;;;;;;;;;;;;1.92;42.75;95621.03;1736754;81;21393;-53
2021/03/22 01:38:43;;;;;;;;;;;;;;;1.82;43.07;95619.39;1736209;81;20216;-53
2021/03/22 01:41:31;;;;;;;;;;;;;;;1.81;43.19;95613.46;1735115;81;20498;-53
2021/03/22 01:44:19;;;;;;;;;;;;;;;1.80;43.25;95616.91;1733296;81;20235;-51
2021/03/22 01:46:52;;;;;;;;;;;;;;;1.68;43.39;95617.98;1744096;81;20611;-52
2021/03/22 01:49:21;;;;;;;;;;;;;;;1.65;43.63;95613.41;1735057;81;22590;-52
2021/03/22 01:51:48;;;;;;;;;;;;;;;1.69;43.75;95611.52;1738339;81;20648;-52
2021/03/22 01:54:16;;;;;;;;;;;;;;;1.65;43.98;95608.30;1726549;81;20497;-52
2021/03/22 01:56:49;;;;;;;;;;;;;;;1.68;44.04;95603.92;1732837;81;20581;-52
2021/03/22 01:59:20;;;;;;;;;;;;;;;1.65;43.89;95607.48;1737509;81;20226;-52
2021/03/22 02:01:52;;;;;;;;;;;;;;;1.64;44.04;95606.66;1736508;81;21234;-53
2021/03/22 02:04:20;;;;;;;;;;;;;;;1.64;43.81;95605.81;1720102;82;20549;-53
2021/03/22 02:06:49;;;;;;;;;;;;;;;1.62;43.72;95594.38;1729692;81;20545;-52
2021/03/22 02:09:18;;;;;;;;;;;;;;;1.61;43.96;95591.47;1727968;81;20218;-52
2021/03/22 02:11:46;;;;;;;;;;;;;;;1.65;43.80;95584.47;1735726;81;20222;-52
2021/03/22 02:14:14;;;;;;;;;;;;;;;1.62;43.93;95580.32;1730183;81;22149;-53
2021/03/22 02:17:00;;;;;;;;;;;;;;;1.62;44.03;95578.22;1731145;81;20489;-52
2021/03/22 02:19:46;;;;;;;;;;;;;;;1.59;44.03;95579.19;1712770;82;20287;-53
2021/03/22 02:22:23;;;;;;;;;;;;;;;1.56;44.19;95581.94;1730595;81;20230;-52
2021/03/22 02:25:21;;;;;;;;;;;;;;;1.49;44.40;95569.53;1736652;81;20215;-53
2021/03/22 02:28:24;;;;;;;;;;;;;;;1.45;44.78;95573.98;1737480;81;21236;-53
2021/03/22 02:31:01;;;;;;;;;;;;;;;1.50;44.82;95569.45;1737035;81;20626;-56
2021/03/22 02:34:04;;;;;;;;;;;;;;;1.52;44.86;95575.77;1734656;81;20305;-51
2021/03/22 02:36:41;;;;;;;;;;;;;;;1.54;44.69;95576.05;1734135;81;20230;-53
2021/03/22 02:39:08;;;;;;;;;;;;;;;1.58;44.71;95580.12;1735014;81;20672;-53
2021/03/22 02:41:38;;;;;;;;;;;;;;;1.58;44.96;95578.84;1736344;81;21166;-52
2021/03/22 02:44:09;;;;;;;;;;;;;;;1.60;44.82;95577.02;1743130;81;20281;-52
2021/03/22 02:46:37;;;;;;;;;;;;;;;1.59;45.13;95577.09;1726594;81;20300;-52
2021/03/22 02:49:08;;;;;;;;;;;;;;;1.65;45.22;95572.95;1736097;81;20246;-53
2021/03/22 02:51:42;;;;;;;;;;;;;;;1.71;45.17;95571.80;1734667;81;20814;-52
2021/03/22 02:54:15;;;;;;;;;;;;;;;1.73;45.11;95573.84;1734527;81;21265;-53
2021/03/22 02:56:49;;;;;;;;;;;;;;;1.73;45.27;95566.99;1736056;81;20899;-52
2021/03/22 02:59:20;;;;;;;;;;;;;;;1.74;45.12;95571.19;1734732;81;20229;-54
2021/03/22 03:01:52;;;;;;;;;;;;;;;1.78;45.23;95567.58;1736924;81;20222;-54
2021/03/22 03:04:20;;;;;;;;;;;;;;;1.83;45.00;95566.88;1734397;81;20239;-53
2021/03/22 03:06:57;;;;;;;;;;;;;;;1.86;45.11;95564.63;1733196;81;21210;-53
2021/03/22 03:09:26;;;;;;;;;;;;;;;1.86;45.03;95570.17;1733912;81;20226;-53
2021/03/22 03:11:55;;;;;;;;;;;;;;;1.82;45.12;95569.05;1735876;81;20502;-53
2021/03/22 03:14:22;;;;;;;;;;;;;;;1.83;45.52;95573.27;1737902;81;20709;-52
2021/03/22 03:16:50;;;;;;;;;;;;;;;1.90;45.58;95575.06;1737397;81;20217;-53
2021/03/22 03:19:17;;;;;;;;;;;;;;;1.94;45.19;95569.32;1723693;81;21403;-53
2021/03/22 03:21:45;;;;;;;;;;;;;;;1.95;45.28;95573.55;1732859;81;20243;-53
2021/03/22 03:24:13;;;;;;;;;;;;;;;2.00;45.28;95574.13;1733352;81;20236;-53
2021/03/22 03:26:40;;;;;;;;;;;;;;;2.08;45.15;95572.45;1735097;81;20228;-53
2021/03/22 03:29:07;;;;;;;;;;;;;;;2.17;45.18;95568.95;1735685;81;20506;-53
2021/03/22 03:31:35;;;;;;;;;;;;;;;2.25;44.89;95577.47;1736711;81;22106;-52
2021/03/22 03:34:04;;;;;;;;;;;;;;;2.33;44.71;95575.79;1731073;81;20274;-53
2021/03/22 03:36:32;;;;;;;;;;;;;;;2.41;44.43;95572.82;1734494;81;20246;-53
2021/03/22 03:39:01;;;;;;;;;;;;;;;2.46;44.41;95574.21;1740353;81;20226;-52
2021/03/22 03:41:28;;;;;;;;;;;;;;;2.50;44.19;95573.15;1735358;81;20297;-53
2021/03/22 03:43:55;;;;;;;;;;;;;;;2.54;44.28;95570.77;1739016;81;21217;-52
2021/03/22 03:46:23;;;;;;;;;;;;;;;2.60;44.27;95573.91;1739568;81;20709;-53
2021/03/22 03:48:50;;;;;;;;;;;;;;;2.65;44.13;95577.88;1731581;81;20241;-54
2021/03/22 03:51:18;;;;;;;;;;;;;;;2.71;44.11;95575.42;1736149;81;20301;-53
2021/03/22 03:53:45;;;;;;;;;;;;;;;2.76;43.88;95572.98;1736155;81;20239;-53
2021/03/22 03:56:12;;;;;;;;;;;;;;;2.81;43.59;95575.73;1734272;81;21253;-53
2021/03/22 03:58:41;;;;;;;;;;;;;;;2.86;43.49;95573.73;1733947;81;20221;-53
2021/03/22 04:01:09;;;;;;;;;;;;;;;2.91;43.47;95575.15;1734881;81;20226;-53
2021/03/22 04:03:38;;;;;;;;;;;;;;;2.93;43.37;95586.59;1735818;81;20620;-53
2021/03/22 04:06:12;;;;;;;;;;;;;;;2.91;43.14;95589.23;1737882;81;20226;-54
2021/03/22 04:08:44;;;;;;;;;;;;;;;2.86;43.62;95595.08;1737463;81;21385;-54
2021/03/22 04:11:14;;;;;;;;;;;;;;;2.87;43.69;95590.77;1736378;82;20497;-55
2021/03/22 04:13:41;;;;;;;;;;;;;;;2.90;43.45;95595.73;1737224;82;20234;-53
2021/03/22 04:16:10;;;;;;;;;;;;;;;2.92;43.44;95599.02;1737798;82;20713;-54
2021/03/22 04:18:38;;;;;;;;;;;;;;;2.94;43.64;95593.35;1736721;82;20269;-55
2021/03/22 04:21:10;;;;;;;;;;;;;;;2.94;43.87;95594.63;1736663;82;21276;-53
2021/03/22 04:23:37;;;;;;;;;;;;;;;2.91;43.79;95598.20;1737611;82;20210;-53
2021/03/22 04:26:05;;;;;;;;;;;;;;;2.92;44.09;95600.30;1738311;81;20280;-54
2021/03/22 04:28:32;;;;;;;;;;;;;;;2.93;44.16;95604.53;1738108;81;20277;-53
2021/03/22 04:31:01;;;;;;;;;;;;;;;2.93;44.15;95606.62;1739323;81;20274;-53
2021/03/22 04:33:29;;;;;;;;;;;;;;;2.93;44.53;95610.47;1736640;82;21216;-54
2021/03/22 04:35:59;;;;;;;;;;;;;;;2.91;44.32;95609.73;1737137;82;20242;-54
2021/03/22 04:38:27;;;;;;;;;;;;;;;2.85;43.69;95607.98;1734447;82;20222;-54
2021/03/22 04:40:56;;;;;;;;;;;;;;;2.72;44.04;95609.10;1738240;82;20230;-54
2021/03/22 04:43:23;;;;;;;;;;;;;;;2.63;44.70;95604.47;1737278;81;20266;-53
2021/03/22 04:45:51;;;;;;;;;;;;;;;2.60;44.67;95607.20;1739833;81;20516;-52
2021/03/22 04:48:18;;;;;;;;;;;;;;;2.54;45.13;95609.19;1739141;81;20281;-55
2021/03/22 04:50:46;;;;;;;;;;;;;;;2.57;45.89;95610.77;1737486;82;20218;-54
2021/03/22 04:53:14;;;;;;;;;;;;;;;2.55;46.18;95619.00;1739415;81;20222;-55
2021/03/22 04:55:43;;;;;;;;;;;;;;;2.57;46.57;95615.42;1745042;81;20266;-54
2021/03/22 04:58:10;;;;;;;;;;;;;;;2.44;47.05;95616.19;1741304;81;22133;-53
2021/03/22 05:00:41;;;;;;;;;;;;;;;2.42;47.37;95624.38;1737368;81;20235;-54
2021/03/22 05:03:10;;;;;;;;;;;;;;;2.43;47.63;95625.58;1746384;81;20250;-53
2021/03/22 05:05:38;;;;;;;;;;;;;;;2.43;47.67;95636.28;1740338;81;20219;-55
2021/03/22 05:08:07;;;;;;;;;;;;;;;2.50;47.58;95635.88;1737042;81;20239;-54
2021/03/22 05:10:36;;;;;;;;;;;;;;;2.52;47.62;95637.90;1740044;81;21391;-54
2021/03/22 05:13:04;;;;;;;;;;;;;;;2.57;47.59;95641.50;1740468;81;20492;-54
2021/03/22 05:15:31;;;;;;;;;;;;;;;2.60;47.46;95639.21;1737600;81;20545;-54
2021/03/22 05:17:58;;;;;;;;;;;;;;;2.63;47.30;95642.89;1740123;81;20627;-53
2021/03/22 05:20:33;;;;;;;;;;;;;;;2.71;47.24;95654.39;1739390;81;20235;-54
2021/03/22 05:23:01;;;;;;;;;;;;;;;2.79;47.13;95656.98;1731461;81;21447;-54
2021/03/22 05:25:29;;;;;;;;;;;;;;;2.85;47.38;95657.94;1740606;81;20230;-54
2021/03/22 05:27:58;;;;;;;;;;;;;;;2.92;47.17;95656.67;1730487;81;20270;-53
2021/03/22 05:30:27;;;;;;;;;;;;;;;2.99;47.15;95659.27;1738449;81;20558;-56
2021/03/22 05:32:59;;;;;;;;;;;;;;;3.07;47.19;95662.69;1735925;81;20238;-54
2021/03/22 05:35:26;;;;;;;;;;;;;;;3.18;46.93;95664.20;1732253;81;21308;-54
2021/03/22 05:37:54;;;;;;;;;;;;;;;3.32;45.98;95667.26;1732560;81;20362;-54
2021/03/22 05:40:25;;;;;;;;;;;;;;;3.44;45.77;95659.35;1735456;81;20243;-54
2021/03/22 05:42:59;;;;;;;;;;;;;;;3.54;45.55;95668.17;1738014;81;20621;-55
2021/03/22 05:45:34;;;;;;;;;;;;;;;3.61;45.51;95672.02;1736032;81;20218;-54
2021/03/22 05:48:17;;;;;;;;;;;;;;;3.69;45.71;95677.53;1737381;81;22131;-55
2021/03/22 05:51:15;;;;;;;;;;;;;;;3.81;46.11;95673.42;1727157;81;20253;-55
2021/03/22 05:54:06;;;;;;;;;;;;;;;3.91;46.52;95673.72;1736340;81;20285;-53
2021/03/22 05:57:09;;;;;;;;;;;;;;;3.98;47.20;95681.88;1738769;81;20727;-54
2021/03/22 06:00:00;;;;;;;;;;;;;;;3.94;48.14;95682.98;1734766;81;20226;-54
2021/03/22 06:02:54;;;;;;;;;;;;;;;3.86;49.32;95680.86;1738094;81;21468;-54
2021/03/22 06:05:53;;;;;;;;;;;;;;;3.83;49.96;95691.30;1739662;81;20266;-53
2021/03/22 06:08:34;;;;;;;;;;;;;;;3.78;50.56;95684.33;1686250;83;20234;-54
2021/03/22 06:11:05;;;;;;;;;;;;;;;3.70;51.58;95680.95;1670284;85;20675;-53
2021/03/22 06:13:38;;;;;;;;;;;;;;;3.65;51.86;95681.64;1718830;82;20273;-54
2021/03/22 06:16:25;;;;;;;;;;;;;;;3.68;52.32;95685.31;1740680;81;22280;-54
2021/03/22 06:18:58;;;;;;;;;;;;;;;3.74;52.70;95686.72;1736463;81;20501;-53
2021/03/22 06:21:27;;;;;;;;;;;;;;;3.79;52.99;95686.81;1732050;81;20482;-54
2021/03/22 06:23:55;;;;;;;;;;;;;;;3.93;53.20;95686.45;1739602;81;20222;-54
2021/03/22 06:26:40;;;;;;;;;;;;;;;4.10;52.60;95692.72;1693908;81;20255;-54
2021/03/22 06:29:20;;;;;;;;;;;;;;;4.13;52.62;95688.69;1727268;81;22299;-54
2021/03/22 06:31:53;;;;;;;;;;;;;;;4.18;52.35;95690.99;1741979;81;20220;-55
2021/03/22 06:34:42;;;;;;;;;;;;;;;4.15;52.53;95697.13;1732524;81;20247;-54
2021/03/22 06:37:11;;;;;;;;;;;;;;;4.21;52.79;95699.77;1735446;81;20578;-54
2021/03/22 06:39:45;;;;;;;;;;;;;;;4.28;52.52;95701.55;1736796;81;20250;-54
2021/03/22 06:42:18;;;;;;;;;;;;;;;4.29;52.39;95699.33;1716395;82;21214;-53
2021/03/22 06:44:46;;;;;;;;;;;;;;;4.35;52.31;95702.34;1732844;81;20494;-55
2021/03/22 06:47:24;;;;;;;;;;;;;;;4.41;52.12;95703.27;1737581;81;20218;-53
2021/03/22 06:49:54;;;;;;;;;;;;;;;4.46;52.14;95699.59;1714287;81;20332;-54
2021/03/22 06:52:23;;;;;;;;;;;;;;;4.56;52.12;95705.38;1729349;81;20243;-54
2021/03/22 06:54:54;;;;;;;;;;;;;;;4.67;52.10;95700.88;1739493;81;21211;-54
2021/03/22 06:57:24;;;;;;;;;;;;;;;4.71;52.07;95707.47;1738022;81;20301;-55
2021/03/22 07:00:05;;;;;;;;;;;;;;;4.74;52.09;95713.70;1734068;81;20498;-54
2021/03/22 07:02:54;;;;;;;;;;;;;;;4.74;51.80;95707.75;1735886;81;20827;-54
2021/03/22 07:05:28;;;;;;;;;;;;;;;4.68;52.00;95712.78;1731245;81;20501;-54
2021/03/22 07:08:07;;;;;;;;;;;;;;;4.54;52.38;95713.64;1736073;81;21229;-54
2021/03/22 07:10:39;;;;;;;;;;;;;;;4.51;52.80;95712.53;1738030;81;20264;-54
2021/03/22 07:13:22;;;;;;;;;;;;;;;4.50;53.18;95717.77;1737034;81;20222;-54
2021/03/22 07:15:51;;;;;;;;;;;;;;;4.56;53.31;95718.22;1734726;81;20566;-54
2021/03/22 07:18:26;;;;;;;;;;;;;;;4.65;53.19;95712.97;1731275;81;20225;-54
2021/03/22 07:21:07;;;;;;;;;;;;;;;4.75;53.21;95719.22;1836642;75;20259;-54
2021/03/22 07:23:45;;;;;;;;;;;;;;;4.76;53.13;95713.61;1800281;77;20208;-53
2021/03/22 07:26:18;;;;;;;;;;;;;;;4.84;53.50;95717.01;1803850;77;21195;-55
2021/03/22 07:29:23;;;;;;;;;;;;;;;4.96;53.28;95719.62;1781767;78;20212;-54
2021/03/22 07:32:14;;;;;;;;;;;;;;;5.08;52.71;95723.63;1800248;77;20492;-53
2021/03/22 07:34:52;;;;;;;;;;;;;;;5.09;52.61;95727.87;1793399;77;20286;-53
2021/03/22 07:37:41;;;;;;;;;;;;;;;5.04;52.65;95732.01;1789998;77;20212;-54
2021/03/22 07:40:19;;;;;;;;;;;;;;;4.93;52.69;95733.13;1775989;77;22093;-55
2021/03/22 07:42:59;;;;;;;;;;;;;;;4.87;53.43;95730.48;1790158;77;20513;-54
2021/03/22 07:45:38;;;;;;;;;;;;;;;4.94;53.63;95733.03;1759310;80;20266;-55
2021/03/22 07:48:12;;;;;;;;;;;;;;;4.95;53.42;95729.99;1754553;81;20632;-54
2021/03/22 07:50:45;;;;;;;;;;;;;;;5.01;53.47;95733.95;1750782;81;20500;-54
2021/03/22 07:53:25;;;;;;;;;;;;;;;4.97;53.27;95734.13;1749492;81;21885;-55
2021/03/22 07:55:58;;;;;;;;;;;;;;;4.77;54.11;95735.37;1749308;79;20231;-54
2021/03/22 07:58:54;;;;;;;;;;;;;;;4.61;54.60;95737.22;1748198;79;20227;-54
2021/03/22 08:01:56;;;;;;;;;;;;;;;4.44;55.18;95740.80;1731642;81;20299;-54
2021/03/22 08:04:43;;;;;;;;;;;;;;;4.49;55.75;95735.37;1726068;81;20236;-56
2021/03/22 08:07:49;;;;;;;;;;;;;;;4.68;55.87;95737.20;1734650;80;21375;-53
2021/03/22 08:10:28;;;;;;;;;;;;;;;4.96;55.46;95740.19;1733604;81;20256;-56
2021/03/22 08:13:08;;;;;;;;;;;;;;;5.27;54.99;95745.18;1729990;82;20245;-56
2021/03/22 08:15:42;;;;;;;;;;;;;;;5.50;54.59;95745.83;1727601;81;20240;-55
2021/03/22 08:18:13;;;;;;;;;;;;;;;5.61;53.83;95753.31;1738553;81;20395;-56
2021/03/22 08:20:51;;;;;;;;;;;;;;;5.57;53.85;95755.27;1732737;81;21267;-53
2021/03/22 08:23:31;;;;;;;;;;;;;;;5.56;53.97;95754.92;1732766;82;20222;-54
2021/03/22 08:26:01;;;;;;;;;;;;;;;5.57;54.10;95757.02;1736978;81;20246;-55
2021/03/22 08:28:43;;;;;;;;;;;;;;;5.51;54.01;95757.78;1720975;81;20232;-55
2021/03/22 08:31:26;;;;;;;;;;;;;;;5.44;53.97;95755.21;1728829;81;20266;-55
2021/03/22 08:33:56;;;;;;;;;;;;;;;5.33;54.55;95756.37;1725475;82;21209;-55
2021/03/22 08:36:41;;;;;;;;;;;;;;;5.31;54.31;95760.33;1739900;81;20214;-55
2021/03/22 08:39:24;;;;;;;;;;;;;;;5.24;54.36;95759.05;1723143;82;20304;-56
2021/03/22 08:42:10;;;;;;;;;;;;;;;5.11;54.81;95764.59;1725056;81;20484;-55
2021/03/22 08:44:44;;;;;;;;;;;;;;;5.07;55.30;95761.86;1731313;82;20242;-55
2021/03/22 08:47:28;;;;;;;;;;;;;;;5.06;55.52;95767.44;1761222;78;21206;-55
2021/03/22 08:49:57;;;;;;;;;;;;;;;5.04;55.33;95771.86;1756125;78;20260;-54
2021/03/22 08:52:32;;;;;;;;;;;;;;;4.95;55.70;95775.83;1754537;81;20503;-56
2021/03/22 08:55:09;;;;;;;;;;;;;;;4.87;56.11;95768.20;1771054;81;20293;-54
2021/03/22 08:57:55;;;;;;;;;;;;;;;4.81;56.44;95770.70;1752899;78;20228;-54
2021/03/22 09:00:28;;;;;;;;;;;;;;;4.81;56.48;95770.70;1757612;78;21213;-54
2021/03/22 09:03:16;;;;;;;;;;;;;;;4.79;56.46;95772.07;1769904;81;20285;-55
2021/03/22 09:06:17;;;;;;;;;;;;;;;4.78;56.62;95774.73;1765859;78;20243;-53
2021/03/22 09:08:55;;;;;;;;;;;;;;;4.78;56.63;95776.02;1757283;78;20236;-55
2021/03/22 09:11:43;;;;;;;;;;;;;;;4.77;56.99;95784.66;1762229;78;20221;-54
2021/03/22 09:14:29;;;;;;;;;;;;;;;4.79;57.31;95781.06;1757011;79;20500;-54
2021/03/22 09:16:57;;;;;;;;;;;;;;;4.85;57.12;95781.61;1760942;78;20312;-54
2021/03/22 09:19:40;;;;;;;;;;;;;;;4.89;57.18;95785.66;1760638;78;20221;-55
2021/03/22 09:22:13;;;;;;;;;;;;;;;4.88;57.20;95786.10;1772094;78;20288;-57
2021/03/22 09:24:45;;;;;;;;;;;;;;;4.90;57.14;95780.43;1789405;79;20212;-56
2021/03/22 09:27:19;;;;;;;;;;;;;;;4.84;57.33;95795.41;1787764;79;21162;-55
2021/03/22 09:29:49;;;;;;;;;;;;;;;4.85;57.68;95795.75;1789992;78;20645;-54
2021/03/22 09:32:32;;;;;;;;;;;;;;;4.97;57.25;95800.16;1796950;79;20234;-54
2021/03/22 09:35:09;;;;;;;;;;;;;;;4.94;57.32;95801.63;1786418;79;20297;-54
2021/03/22 09:37:54;;;;;;;;;;;;;;;4.82;57.42;95811.35;1783172;78;20239;-54
2021/03/22 09:40:26;;;;;;;;;;;;;;;4.76;57.64;95807.42;1770721;78;21202;-54
2021/03/22 09:43:13;;;;;;;;;;;;;;;4.65;57.54;95813.19;1780628;79;21012;-55
2021/03/22 09:45:56;;;;;;;;;;;;;;;4.57;57.99;95826.50;1782079;78;20228;-55
2021/03/22 09:48:28;;;;;;;;;;;;;;;4.48;58.21;95825.75;1792886;78;20422;-54
2021/03/22 09:51:06;;;;;;;;;;;;;;;4.42;58.54;95828.67;1792466;79;20485;-54
2021/03/22 09:53:55;;;;;;;;;;;;;;;4.39;58.69;95837.83;1785566;78;22378;-55
2021/03/22 09:56:29;;;;;;;;;;;;;;;4.36;58.76;95840.60;1781007;78;20255;-55
2021/03/22 09:59:26;;;;;;;;;;;;;;;4.43;58.88;95839.32;1782827;78;20265;-54
2021/03/22 10:01:54;;;;;;;;;;;;;;;4.46;59.27;95836.58;1787053;78;20240;-54
2021/03/22 10:04:31;;;;;;;;;;;;;;;4.48;59.12;95842.45;1785069;78;20272;-54
2021/03/22 10:07:11;;;;;;;;;;;;;;;4.53;59.30;95842.19;1782622;78;21356;-55
2021/03/22 10:09:45;;;;;;;;;;;;;;;4.52;59.06;95845.22;1783728;79;20274;-56
2021/03/22 10:12:16;;;;;;;;;;;;;;;4.47;59.37;95842.06;1790750;78;20491;-53
2021/03/22 10:14:46;;;;;;;;;;;;;;;4.50;59.18;95839.79;1775222;78;20295;-54
2021/03/22 10:17:28;;;;;;;;;;;;;;;4.59;59.16;95840.55;1787747;78;20273;-55
2021/03/22 10:19:59;;;;;;;;;;;;;;;4.64;59.25;95841.53;1783774;79;21393;-55
2021/03/22 10:22:26;;;;;;;;;;;;;;;4.75;58.93;95841.30;1784016;78;20501;-54
2021/03/22 10:25:13;;;;;;;;;;;;;;;4.93;58.87;95847.52;1790701;78;20240;-55
2021/03/22 10:27:40;;;;;;;;;;;;;;;5.08;57.94;95844.48;1784815;79;20244;-54
2021/03/22 10:30:16;;;;;;;;;;;;;;;5.18;57.65;95843.47;1781201;78;20488;-55
2021/03/22 10:32:47;;;;;;;;;;;;;;;5.22;57.72;95843.66;1780392;78;21202;-55
2021/03/22 10:35:19;;;;;;;;;;;;;;;5.24;57.81;95840.53;1790593;78;20238;-54
2021/03/22 10:37:49;;;;;;;;;;;;;;;5.21;57.73;95842.00;1783656;79;20506;-54
2021/03/22 10:40:23;;;;;;;;;;;;;;;5.16;57.66;95850.84;1778629;78;20259;-54
2021/03/22 10:42:53;;;;;;;;;;;;;;;5.15;58.03;95850.93;1784677;79;20352;-54
2021/03/22 10:45:38;;;;;;;;;;;;;;;5.17;58.29;95854.23;1783803;78;21416;-55
2021/03/22 10:48:24;;;;;;;;;;;;;;;5.20;58.22;95855.33;1797309;78;20226;-55
2021/03/22 10:51:01;;;;;;;;;;;;;;;5.25;57.95;95855.06;1780062;79;20227;-54
2021/03/22 10:53:30;;;;;;;;;;;;;;;5.30;57.95;95855.59;1790577;79;20218;-53
2021/03/22 10:55:59;;;;;;;;;;;;;;;5.23;57.88;95855.59;1791321;79;20265;-54
2021/03/22 10:58:28;;;;;;;;;;;;;;;5.18;58.20;95866.62;1734148;79;21161;-55
2021/03/22 11:01:03;;;;;;;;;;;;;;;5.15;58.33;95863.80;1787048;78;20234;-55
2021/03/22 11:03:31;;;;;;;;;;;;;;;5.18;57.88;95861.47;1771873;78;20230;-54
2021/03/22 11:05:59;;;;;;;;;;;;;;;5.14;57.45;95859.55;1778191;78;20656;-54
2021/03/22 11:08:37;;;;;;;;;;;;;;;5.13;57.35;95866.89;1795055;78;20222;-54
2021/03/22 11:11:08;;;;;;;;;;;;;;;5.13;57.43;95866.89;1790223;79;22102;-54
2021/03/22 11:13:37;;;;;;;;;;;;;;;5.20;57.72;95869.91;1782974;79;20238;-54
2021/03/22 11:16:06;;;;;;;;;;;;;;;5.22;57.47;95870.20;1776869;79;20492;-54
2021/03/22 11:18:34;;;;;;;;;;;;;;;5.18;57.76;95871.33;1781821;79;20236;-54
2021/03/22 11:21:04;;;;;;;;;;;;;;;5.10;58.13;95877.39;1778801;78;20239;-55
2021/03/22 11:23:41;;;;;;;;;;;;;;;4.97;58.29;95884.53;1785844;78;21206;-55
2021/03/22 11:26:21;;;;;;;;;;;;;;;4.71;57.50;95882.68;1784245;78;20230;-55
2021/03/22 11:28:48;;;;;;;;;;;;;;;4.50;57.52;95884.28;1789903;80;20493;-55
2021/03/22 11:31:20;;;;;;;;;;;;;;;4.40;57.98;95885.27;1782602;78;20242;-55
2021/03/22 11:34:00;;;;;;;;;;;;;;;4.34;58.21;95884.35;1794906;78;20246;-54
2021/03/22 11:36:40;;;;;;;;;;;;;;;4.20;58.87;95888.97;1777166;78;22339;-55
2021/03/22 11:39:20;;;;;;;;;;;;;;;4.03;60.07;95889.11;1789369;78;20214;-55
2021/03/22 11:41:58;;;;;;;;;;;;;;;3.83;60.90;95891.47;1780361;78;20226;-55
2021/03/22 11:44:35;;;;;;;;;;;;;;;3.60;61.71;95891.00;1783460;80;20227;-54
2021/03/22 11:47:39;;;;;;;;;;;;;;;3.51;62.53;95899.18;1792637;78;20253;-54
2021/03/22 11:50:25;;;;;;;;;;;;;;;3.44;62.55;95896.58;1784143;78;21206;-55
2021/03/22 11:53:02;;;;;;;;;;;;;;;3.35;62.29;95897.88;1779747;80;21827;-55
2021/03/22 11:55:32;;;;;;;;;;;;;;;3.26;62.63;95897.91;1786396;80;20236;-55
2021/03/22 11:58:00;;;;;;;;;;;;;;;3.26;62.08;95899.20;1782679;80;20265;-54
2021/03/22 12:00:32;;;;;;;;;;;;;;;3.32;61.99;95896.75;1778651;78;20221;-54
2021/03/22 12:03:09;;;;;;;;;;;;;;;3.38;62.01;95897.72;1794047;78;21204;-55
2021/03/22 12:05:41;;;;;;;;;;;;;;;3.51;61.91;95894.05;1783861;78;20208;-56
2021/03/22 12:08:34;;;;;;;;;;;;;;;3.64;62.09;95892.47;1782108;79;20238;-54
2021/03/22 12:11:06;;;;;;;;;;;;;;;3.83;61.46;95890.18;1791203;79;20224;-54
2021/03/22 12:13:34;;;;;;;;;;;;;;;4.00;60.99;95890.09;1786113;79;20217;-55
2021/03/22 12:16:02;;;;;;;;;;;;;;;4.13;60.09;95900.95;1785270;78;21152;-55
2021/03/22 12:18:34;;;;;;;;;;;;;;;4.14;59.73;95897.47;1774649;79;20695;-54
2021/03/22 12:21:06;;;;;;;;;;;;;;;4.07;59.63;95898.27;1781447;78;20250;-54
2021/03/22 12:23:33;;;;;;;;;;;;;;;3.92;59.84;95896.57;1762600;81;20596;-54
2021/03/22 12:26:02;;;;;;;;;;;;;;;3.72;60.36;95899.77;1761460;78;20236;-54
2021/03/22 12:28:29;;;;;;;;;;;;;;;3.56;60.76;95911.30;1748502;81;21202;-54
2021/03/22 12:30:56;;;;;;;;;;;;;;;3.45;61.20;95917.45;1767479;78;20296;-55
2021/03/22 12:33:28;;;;;;;;;;;;;;;3.40;61.11;95914.30;1764952;78;20238;-54
2021/03/22 12:35:57;;;;;;;;;;;;;;;3.34;61.45;95914.19;1762433;81;20289;-56
2021/03/22 12:38:26;;;;;;;;;;;;;;;3.30;61.39;95917.80;1762589;78;20214;-54
2021/03/22 12:40:53;;;;;;;;;;;;;;;3.32;61.20;95923.67;1749300;78;21157;-54
2021/03/22 12:43:26;;;;;;;;;;;;;;;3.25;61.54;95923.63;1759421;78;20607;-53
2021/03/22 12:45:53;;;;;;;;;;;;;;;3.24;61.92;95921.96;1762024;78;20287;-53
2021/03/22 12:48:21;;;;;;;;;;;;;;;3.28;61.23;95932.45;1767437;78;20577;-53
2021/03/22 12:50:49;;;;;;;;;;;;;;;3.34;61.00;95932.56;1771568;78;20226;-55
2021/03/22 12:53:19;;;;;;;;;;;;;;;3.43;60.56;95933.38;1764202;78;21136;-54
2021/03/22 12:55:47;;;;;;;;;;;;;;;3.49;59.76;95939.48;1769152;79;20259;-53
2021/03/22 12:58:21;;;;;;;;;;;;;;;3.62;59.21;95946.08;1753514;79;20275;-54
2021/03/22 13:00:49;;;;;;;;;;;;;;;3.78;57.58;95939.65;1756584;78;20720;-56
2021/03/22 13:03:22;;;;;;;;;;;;;;;3.91;56.51;95938.06;1760817;81;20489;-55
2021/03/22 13:05:54;;;;;;;;;;;;;;;4.11;55.89;95945.14;1764736;78;21373;-55
2021/03/22 13:08:22;;;;;;;;;;;;;;;4.26;54.75;95942.17;1753501;81;20227;-54
2021/03/22 13:10:50;;;;;;;;;;;;;;;4.35;53.20;95934.78;1760328;78;20218;-54
2021/03/22 13:13:17;;;;;;;;;;;;;;;4.36;52.29;95939.02;1761651;81;20222;-54
2021/03/22 13:15:50;;;;;;;;;;;;;;;4.37;51.52;95937.27;1757088;79;20333;-55
2021/03/22 13:18:22;;;;;;;;;;;;;;;4.39;51.66;95941.86;1771998;81;21195;-53
2021/03/22 13:20:52;;;;;;;;;;;;;;;4.49;52.28;95937.87;1767508;79;20214;-54
2021/03/22 13:23:20;;;;;;;;;;;;;;;4.52;52.10;95936.86;1786461;78;20246;-54
2021/03/22 13:25:49;;;;;;;;;;;;;;;4.51;51.71;95948.89;1777321;78;20236;-55
2021/03/22 13:28:20;;;;;;;;;;;;;;;4.40;51.87;95946.91;1789984;78;20501;-56
2021/03/22 13:30:48;;;;;;;;;;;;;;;4.33;51.86;95943.52;1786848;79;22181;-55
2021/03/22 13:33:20;;;;;;;;;;;;;;;4.33;51.06;95946.08;1777901;79;20217;-55